Time;durP1;ratioP1;P1;durP2;ratioP2;P2;SDS_P1;SDS_P2;PMS_P1;PMS_P2;Temp;Humidity;BMP_temperature;BMP_pressure;BME280_temperature;BME280_humidity;BME280_pressure;Samples;Min_cycle;Max_cycle;Signal;HPM_P1;HPM_P2
2023/12/08 00:02:15;;;;;;;11.43;6.63;;;;;;;;;;5085168;28;20035;-59
2023/12/08 00:04:41;;;;;;;12.70;8.05;;;;;;;;;;5086696;28;20016;-59
2023/12/08 00:07:07;;;;;;;12.65;8.13;;;;;;;;;;5067305;28;20144;-61
2023/12/08 00:09:33;;;;;;;11.68;6.85;;;;;;;;;;5086987;28;20033;-62
2023/12/08 00:11:59;;;;;;;15.15;8.30;;;;;;;;;;5087594;28;20111;-62
2023/12/08 00:14:25;;;;;;;11.30;6.60;;;;;;;;;;5089084;28;20481;-61
2023/12/08 00:16:51;;;;;;;11.27;6.57;;;;;;;;;;5089219;28;20070;-61
2023/12/08 00:19:17;;;;;;;12.23;7.05;;;;;;;;;;5089492;28;20095;-61
2023/12/08 00:21:43;;;;;;;11.30;6.72;;;;;;;;;;5088533;28;20646;-61
2023/12/08 00:24:09;;;;;;;12.27;7.72;;;;;;;;;;5089597;28;20028;-60
2023/12/08 00:26:35;;;;;;;13.90;8.75;;;;;;;;;;5089474;28;20016;-61
2023/12/08 00:29:01;;;;;;;13.65;7.88;;;;;;;;;;5088058;28;20512;-59
2023/12/08 00:31:27;;;;;;;11.13;6.50;;;;;;;;;;5089429;28;20402;-64
2023/12/08 00:33:53;;;;;;;11.13;6.50;;;;;;;;;;5088445;28;20394;-60
2023/12/08 00:36:19;;;;;;;11.38;6.70;;;;;;;;;;5089561;28;20016;-62
2023/12/08 00:38:45;;;;;;;11.52;6.72;;;;;;;;;;5089640;28;20069;-61
2023/12/08 00:41:11;;;;;;;12.95;7.75;;;;;;;;;;5088322;28;20513;-61
2023/12/08 00:43:37;;;;;;;12.25;7.75;;;;;;;;;;5089052;28;20039;-61
2023/12/08 00:46:03;;;;;;;12.40;7.50;;;;;;;;;;5089597;28;20024;-63
2023/12/08 00:48:30;;;;;;;12.60;8.27;;;;;;;;;;5089821;28;20055;-60
2023/12/08 00:50:56;;;;;;;11.55;6.75;;;;;;;;;;5089200;28;20110;-60
2023/12/08 00:53:22;;;;;;;11.93;6.97;;;;;;;;;;5089746;28;20024;-60
2023/12/08 00:55:48;;;;;;;11.98;7.00;;;;;;;;;;5088282;28;20034;-61
2023/12/08 00:58:17;;;;;;;11.63;6.78;;;;;;;;;;5088366;28;20032;-62
2023/12/08 01:00:43;;;;;;;11.27;6.57;;;;;;;;;;5087702;28;20016;-61
2023/12/08 01:03:09;;;;;;;13.55;7.60;;;;;;;;;;5089818;28;20050;-62
2023/12/08 01:05:35;;;;;;;11.48;6.70;;;;;;;;;;5089920;28;20023;-63
2023/12/08 01:08:01;;;;;;;11.10;6.47;;;;;;;;;;5089250;28;20024;-60
2023/12/08 01:10:27;;;;;;;11.43;6.70;;;;;;;;;;5088043;28;20521;-59
2023/12/08 01:12:53;;;;;;;11.60;6.80;;;;;;;;;;5089448;28;20031;-60
2023/12/08 01:15:19;;;;;;;11.10;6.45;;;;;;;;;;5089731;28;20060;-61
2023/12/08 01:17:45;;;;;;;11.25;6.60;;;;;;;;;;5089557;28;20043;-58
2023/12/08 01:20:11;;;;;;;11.32;6.60;;;;;;;;;;5089206;28;20107;-61
2023/12/08 01:22:37;;;;;;;14.15;11.02;;;;;;;;;;5089489;28;20095;-60
2023/12/08 01:25:03;;;;;;;11.43;6.70;;;;;;;;;;5091263;28;20470;-62
2023/12/08 01:27:29;;;;;;;11.30;6.70;;;;;;;;;;5095922;28;20032;-61
2023/12/08 01:29:55;;;;;;;14.45;7.28;;;;;;;;;;5090230;28;20016;-58
2023/12/08 01:32:21;;;;;;;11.48;6.70;;;;;;;;;;5089803;28;20021;-59
2023/12/08 01:34:47;;;;;;;12.13;7.25;;;;;;;;;;5089161;28;20494;-61
2023/12/08 01:37:13;;;;;;;11.73;6.90;;;;;;;;;;5088122;28;20038;-61
2023/12/08 01:39:40;;;;;;;12.05;7.07;;;;;;;;;;5089169;28;20012;-64
2023/12/08 01:42:06;;;;;;;13.20;8.25;;;;;;;;;;5088928;28;20103;-59
2023/12/08 01:44:32;;;;;;;12.40;7.30;;;;;;;;;;5087766;28;20103;-62
2023/12/08 01:46:58;;;;;;;12.35;7.20;;;;;;;;;;5089013;28;20104;-61
2023/12/08 01:49:24;;;;;;;11.88;6.90;;;;;;;;;;5089176;28;20040;-62
2023/12/08 01:51:50;;;;;;;12.50;7.70;;;;;;;;;;5088886;28;20474;-59
2023/12/08 01:54:16;;;;;;;12.10;7.10;;;;;;;;;;5089951;28;20024;-60
2023/12/08 01:56:43;;;;;;;13.35;7.95;;;;;;;;;;5092953;28;20521;-61
2023/12/08 01:59:09;;;;;;;12.20;7.10;;;;;;;;;;5091451;28;20025;-62
2023/12/08 02:01:35;;;;;;;11.75;6.82;;;;;;;;;;5092915;28;20092;-61
2023/12/08 02:04:02;;;;;;;12.30;7.10;;;;;;;;;;5093165;28;20089;-62
2023/12/08 02:06:28;;;;;;;12.18;7.10;;;;;;;;;;5092265;28;20434;-61
2023/12/08 02:08:54;;;;;;;12.27;7.13;;;;;;;;;;5092289;28;20047;-61
2023/12/08 02:11:20;;;;;;;12.32;7.15;;;;;;;;;;5092505;28;20023;-61
2023/12/08 02:13:46;;;;;;;12.32;7.60;;;;;;;;;;5092707;28;20442;-61
2023/12/08 02:16:25;;;;;;;12.05;7.00;;;;;;;;;;5091088;28;20088;-63
2023/12/08 02:18:51;;;;;;;11.63;6.82;;;;;;;;;;5092528;28;20016;-59
2023/12/08 02:21:18;;;;;;;11.98;6.90;;;;;;;;;;5092078;28;20493;-61
2023/12/08 02:23:50;;;;;;;11.95;6.97;;;;;;;;;;5092656;28;20123;-61
2023/12/08 02:26:20;;;;;;;12.25;7.10;;;;;;;;;;5092691;28;20024;-59
2023/12/08 02:28:46;;;;;;;12.23;7.07;;;;;;;;;;5091136;28;20394;-61
2023/12/08 02:31:14;;;;;;;12.23;7.78;;;;;;;;;;5091996;28;20020;-60
2023/12/08 02:33:44;;;;;;;12.55;7.30;;;;;;;;;;5092488;28;20022;-61
2023/12/08 02:36:10;;;;;;;13.70;10.60;;;;;;;;;;5092054;28;20019;-61
2023/12/08 02:38:36;;;;;;;12.40;7.20;;;;;;;;;;5092070;28;20024;-61
2023/12/08 02:41:03;;;;;;;12.40;7.25;;;;;;;;;;5090667;28;20374;-60
2023/12/08 02:43:29;;;;;;;12.70;7.40;;;;;;;;;;5092305;28;20543;-62
2023/12/08 02:45:55;;;;;;;12.75;7.43;;;;;;;;;;5092316;28;20028;-61
2023/12/08 02:48:20;;;;;;;12.70;7.35;;;;;;;;;;5092202;28;20466;-61
2023/12/08 02:50:46;;;;;;;12.38;7.20;;;;;;;;;;5092000;28;20098;-61
2023/12/08 02:53:12;;;;;;;12.55;7.72;;;;;;;;;;5092082;28;20024;-61
2023/12/08 02:55:39;;;;;;;12.32;7.20;;;;;;;;;;5092206;28;20035;-61
2023/12/08 02:58:05;;;;;;;12.40;7.22;;;;;;;;;;5091469;28;20055;-61
2023/12/08 03:00:31;;;;;;;12.25;7.13;;;;;;;;;;5091808;28;20047;-63
2023/12/08 03:02:57;;;;;;;12.20;7.13;;;;;;;;;;5092144;28;20016;-61
2023/12/08 03:05:22;;;;;;;12.20;7.10;;;;;;;;;;5091434;28;20374;-60
2023/12/08 03:07:48;;;;;;;12.65;7.82;;;;;;;;;;5090430;28;20063;-61
2023/12/08 03:10:15;;;;;;;12.60;7.30;;;;;;;;;;5091232;28;20024;-61
2023/12/08 03:12:41;;;;;;;12.35;7.20;;;;;;;;;;5090242;28;20089;-59
2023/12/08 03:15:07;;;;;;;12.70;7.32;;;;;;;;;;5091209;28;20016;-60
2023/12/08 03:17:33;;;;;;;12.13;7.10;;;;;;;;;;5091372;28;20067;-62
2023/12/08 03:19:59;;;;;;;12.45;7.53;;;;;;;;;;5090940;28;20016;-61
2023/12/08 03:22:25;;;;;;;12.52;7.55;;;;;;;;;;5090775;28;20151;-60
2023/12/08 03:24:51;;;;;;;12.10;7.10;;;;;;;;;;5089785;28;20089;-60
2023/12/08 03:27:17;;;;;;;12.55;7.30;;;;;;;;;;5089679;28;20381;-61
2023/12/08 03:29:43;;;;;;;12.50;7.65;;;;;;;;;;5090961;28;20020;-61
2023/12/08 03:32:09;;;;;;;12.77;7.40;;;;;;;;;;5089433;28;20111;-60
2023/12/08 03:34:35;;;;;;;12.73;7.40;;;;;;;;;;5091151;28;20016;-61
2023/12/08 03:37:01;;;;;;;13.25;7.88;;;;;;;;;;5090581;28;20150;-60
2023/12/08 03:39:27;;;;;;;13.32;8.30;;;;;;;;;;5089336;28;20063;-59
2023/12/08 03:41:53;;;;;;;12.77;7.45;;;;;;;;;;5090316;28;20095;-61
2023/12/08 03:44:19;;;;;;;12.88;7.50;;;;;;;;;;5090410;28;20020;-58
2023/12/08 03:46:45;;;;;;;12.52;7.30;;;;;;;;;;5090444;28;20020;-59
2023/12/08 03:49:11;;;;;;;13.40;7.65;;;;;;;;;;5090299;28;20035;-59
2023/12/08 03:51:37;;;;;;;12.77;7.40;;;;;;;;;;5088739;28;20027;-61
2023/12/08 03:54:03;;;;;;;13.77;10.80;;;;;;;;;;5090586;28;20020;-60
2023/12/08 03:56:29;;;;;;;12.60;7.32;;;;;;;;;;5090782;28;20025;-61
2023/12/08 03:58:55;;;;;;;12.85;7.50;;;;;;;;;;5091693;28;20020;-62
2023/12/08 04:01:21;;;;;;;12.20;7.10;;;;;;;;;;5091279;28;20508;-62
2023/12/08 04:03:47;;;;;;;12.30;7.20;;;;;;;;;;5092358;28;20028;-60
2023/12/08 04:06:13;;;;;;;12.88;7.50;;;;;;;;;;5091720;28;20501;-58
2023/12/08 04:08:39;;;;;;;12.65;7.35;;;;;;;;;;5091579;28;20032;-60
2023/12/08 04:11:06;;;;;;;12.70;7.40;;;;;;;;;;5091245;28;20016;-60
2023/12/08 04:13:32;;;;;;;12.38;7.20;;;;;;;;;;5089348;28;20023;-59
2023/12/08 04:15:58;;;;;;;12.85;7.57;;;;;;;;;;5090396;28;20534;-62
2023/12/08 04:18:24;;;;;;;13.05;7.60;;;;;;;;;;5089081;28;20055;-61
2023/12/08 04:20:50;;;;;;;13.05;7.60;;;;;;;;;;5088542;28;20016;-60
2023/12/08 04:23:16;;;;;;;13.00;7.50;;;;;;;;;;5088459;28;20040;-62
2023/12/08 04:25:42;;;;;;;12.80;7.40;;;;;;;;;;5089659;28;20112;-61
2023/12/08 04:28:08;;;;;;;12.35;7.20;;;;;;;;;;5089140;28;20390;-60
2023/12/08 04:30:34;;;;;;;12.43;7.15;;;;;;;;;;5089554;28;20104;-61
2023/12/08 04:33:00;;;;;;;12.00;7.00;;;;;;;;;;5089427;28;20478;-62
2023/12/08 04:35:26;;;;;;;12.07;7.00;;;;;;;;;;5089653;28;20023;-60
2023/12/08 04:37:52;;;;;;;12.50;7.30;;;;;;;;;;5089790;28;20077;-61
2023/12/08 04:40:18;;;;;;;12.00;7.00;;;;;;;;;;5089501;28;20035;-61
2023/12/08 04:42:44;;;;;;;12.60;7.30;;;;;;;;;;5089823;28;20016;-61
2023/12/08 04:45:13;;;;;;;12.20;7.07;;;;;;;;;;5089784;28;20102;-61
2023/12/08 04:47:39;;;;;;;11.95;6.90;;;;;;;;;;5089405;28;20108;-60
2023/12/08 04:50:05;;;;;;;11.68;6.80;;;;;;;;;;5089298;28;20111;-58
2023/12/08 04:52:32;;;;;;;11.95;6.97;;;;;;;;;;5088745;28;20012;-59
2023/12/08 04:54:58;;;;;;;11.65;6.78;;;;;;;;;;5089821;28;20019;-61
2023/12/08 04:57:24;;;;;;;11.70;6.80;;;;;;;;;;5089954;28;20410;-61
2023/12/08 04:59:50;;;;;;;12.00;7.20;;;;;;;;;;5089118;28;20046;-61
2023/12/08 05:02:16;;;;;;;11.95;6.95;;;;;;;;;;5088896;28;20467;-60
2023/12/08 05:04:42;;;;;;;11.50;6.70;;;;;;;;;;5089486;28;20029;-61
2023/12/08 05:07:08;;;;;;;11.50;6.70;;;;;;;;;;5089082;28;20028;-61
2023/12/08 05:09:34;;;;;;;11.80;6.90;;;;;;;;;;5088942;28;20142;-60
2023/12/08 05:12:00;;;;;;;11.50;6.80;;;;;;;;;;5088987;28;20070;-62
2023/12/08 05:14:26;;;;;;;11.73;6.82;;;;;;;;;;5089599;28;20217;-61
2023/12/08 05:16:52;;;;;;;11.75;6.85;;;;;;;;;;5089556;28;20027;-62
2023/12/08 05:19:18;;;;;;;11.70;6.80;;;;;;;;;;5088962;28;20032;-61
2023/12/08 05:21:44;;;;;;;12.18;7.20;;;;;;;;;;5087702;28;20418;-61
2023/12/08 05:24:10;;;;;;;11.90;6.90;;;;;;;;;;5089210;28;20068;-60
2023/12/08 05:26:36;;;;;;;11.57;6.70;;;;;;;;;;5087922;28;20032;-61
2023/12/08 05:29:02;;;;;;;11.27;6.60;;;;;;;;;;5089460;28;20041;-62
2023/12/08 05:31:28;;;;;;;11.27;6.57;;;;;;;;;;5092914;28;20032;-60
2023/12/08 05:33:54;;;;;;;13.18;7.95;;;;;;;;;;5093151;28;20024;-63
2023/12/08 05:36:20;;;;;;;10.80;6.30;;;;;;;;;;5093355;28;20454;-61
2023/12/08 05:38:46;;;;;;;12.50;7.28;;;;;;;;;;5092895;28;20082;-61
2023/12/08 05:41:12;;;;;;;11.05;6.47;;;;;;;;;;5092076;28;20024;-60
2023/12/08 05:43:38;;;;;;;11.20;6.57;;;;;;;;;;5093011;28;20526;-62
2023/12/08 05:46:04;;;;;;;13.35;7.55;;;;;;;;;;5091733;28;20028;-61
2023/12/08 05:48:30;;;;;;;11.70;6.80;;;;;;;;;;5092736;28;20080;-62
2023/12/08 05:50:56;;;;;;;10.98;6.45;;;;;;;;;;5092727;28;20091;-61
2023/12/08 05:53:22;;;;;;;11.40;6.82;;;;;;;;;;5092756;28;20065;-61
2023/12/08 05:55:48;;;;;;;10.93;6.38;;;;;;;;;;5092723;28;20016;-62
2023/12/08 05:58:14;;;;;;;11.15;6.53;;;;;;;;;;5092935;28;20035;-61
2023/12/08 06:00:41;;;;;;;11.38;6.60;;;;;;;;;;5085578;28;20028;-59
2023/12/08 06:03:07;;;;;;;11.95;7.45;;;;;;;;;;5090698;28;20107;-61
2023/12/08 06:05:33;;;;;;;13.38;7.90;;;;;;;;;;5092639;28;20048;-61
2023/12/08 06:07:59;;;;;;;11.55;6.82;;;;;;;;;;5092682;28;20028;-60
2023/12/08 06:10:25;;;;;;;11.00;6.40;;;;;;;;;;5092497;28;20020;-60
2023/12/08 06:12:52;;;;;;;11.50;6.68;;;;;;;;;;5102732;22;20044;-46
2023/12/08 06:15:18;;;;;;;11.55;6.70;;;;;;;;;;5072363;28;20097;-48
2023/12/08 06:17:44;;;;;;;11.70;6.70;;;;;;;;;;5072656;28;20028;-47
2023/12/08 06:20:11;;;;;;;11.60;6.78;;;;;;;;;;5054508;28;20526;-45
2023/12/08 06:22:37;;;;;;;11.68;6.80;;;;;;;;;;5066531;28;20024;-48
2023/12/08 06:25:03;;;;;;;12.10;7.00;;;;;;;;;;5093152;28;20028;-44
2023/12/08 06:27:29;;;;;;;12.00;6.90;;;;;;;;;;5092447;28;20492;-45
2023/12/08 06:29:55;;;;;;;11.95;6.97;;;;;;;;;;5074720;28;20016;-50
2023/12/08 06:32:21;;;;;;;12.27;7.10;;;;;;;;;;5092401;28;20422;-50
2023/12/08 06:34:47;;;;;;;11.50;6.70;;;;;;;;;;5092682;28;20577;-52
2023/12/08 06:37:13;;;;;;;12.00;7.00;;;;;;;;;;5092705;28;20057;-47
2023/12/08 06:39:40;;;;;;;11.52;6.72;;;;;;;;;;5086071;28;20512;-49
2023/12/08 06:42:06;;;;;;;11.32;6.63;;;;;;;;;;5070960;28;20496;-50
2023/12/08 06:44:32;;;;;;;13.25;7.90;;;;;;;;;;5072190;28;20058;-48
2023/12/08 06:46:58;;;;;;;14.93;9.73;;;;;;;;;;5072341;28;20620;-47
2023/12/08 06:49:25;;;;;;;11.57;6.88;;;;;;;;;;5071743;28;20025;-45
2023/12/08 06:51:51;;;;;;;10.70;6.30;;;;;;;;;;5071871;28;20029;-48
2023/12/08 06:54:17;;;;;;;11.02;6.50;;;;;;;;;;5072145;28;20029;-46
2023/12/08 06:56:43;;;;;;;11.50;6.70;;;;;;;;;;5071572;28;20031;-48
2023/12/08 06:59:09;;;;;;;10.95;6.43;;;;;;;;;;5070652;28;20055;-48
2023/12/08 07:01:36;;;;;;;11.63;6.78;;;;;;;;;;5071889;28;20068;-47
2023/12/08 07:04:05;;;;;;;11.32;6.70;;;;;;;;;;5085964;28;20056;-48
2023/12/08 07:06:31;;;;;;;11.38;6.68;;;;;;;;;;5075963;28;20074;-49
2023/12/08 07:08:57;;;;;;;11.30;6.57;;;;;;;;;;5080740;28;20024;-47
2023/12/08 07:11:23;;;;;;;11.40;6.60;;;;;;;;;;5070156;28;20473;-49
2023/12/08 07:13:50;;;;;;;10.90;6.40;;;;;;;;;;5073101;28;20024;-45
2023/12/08 07:16:16;;;;;;;11.32;6.60;;;;;;;;;;5071559;28;20100;-47
2023/12/08 07:18:42;;;;;;;11.60;6.70;;;;;;;;;;5069950;28;20073;-46
2023/12/08 07:21:08;;;;;;;11.80;6.95;;;;;;;;;;5074856;28;20028;-48
2023/12/08 07:23:34;;;;;;;11.60;6.72;;;;;;;;;;5077830;28;20214;-46
2023/12/08 07:26:04;;;;;;;11.32;6.60;;;;;;;;;;5071354;28;20078;-49
2023/12/08 07:28:30;;;;;;;11.50;6.70;;;;;;;;;;5071098;28;20470;-46
2023/12/08 07:30:57;;;;;;;11.65;6.80;;;;;;;;;;5070946;28;20644;-46
2023/12/08 07:33:23;;;;;;;31.30;16.02;;;;;;;;;;5070927;28;20020;-47
2023/12/08 07:35:49;;;;;;;11.57;6.80;;;;;;;;;;5071371;28;20117;-48
2023/12/08 07:38:15;;;;;;;11.60;6.70;;;;;;;;;;5075764;28;20058;-50
2023/12/08 07:40:41;;;;;;;11.55;6.85;;;;;;;;;;5077050;28;20035;-51
2023/12/08 07:43:07;;;;;;;11.90;7.20;;;;;;;;;;5070893;28;20037;-44
2023/12/08 07:45:33;;;;;;;11.73;6.80;;;;;;;;;;5070407;28;20021;-48
2023/12/08 07:47:59;;;;;;;12.50;7.68;;;;;;;;;;5070347;28;20028;-49
2023/12/08 07:50:26;;;;;;;12.40;7.20;;;;;;;;;;5070439;28;20020;-45
2023/12/08 07:52:52;;;;;;;12.30;7.10;;;;;;;;;;5069400;28;20020;-48
2023/12/08 07:55:18;;;;;;;12.23;7.10;;;;;;;;;;5069019;28;20042;-50
2023/12/08 07:57:44;;;;;;;11.98;6.97;;;;;;;;;;5070615;28;20048;-51
2023/12/08 08:00:10;;;;;;;11.80;6.90;;;;;;;;;;5069784;28;20047;-47
2023/12/08 08:02:37;;;;;;;11.98;7.00;;;;;;;;;;5070755;28;20529;-49
2023/12/08 08:05:04;;;;;;;11.38;6.68;;;;;;;;;;5074525;28;20028;-45
2023/12/08 08:07:30;;;;;;;16.20;10.10;;;;;;;;;;5070426;28;20039;-47
2023/12/08 08:09:56;;;;;;;11.60;6.80;;;;;;;;;;5070554;28;20020;-50
2023/12/08 08:12:22;;;;;;;11.45;6.68;;;;;;;;;;5070552;28;20020;-50
2023/12/08 08:14:48;;;;;;;11.60;6.80;;;;;;;;;;5070437;28;20019;-51
2023/12/08 08:17:14;;;;;;;11.27;6.60;;;;;;;;;;5069976;28;20055;-48
2023/12/08 08:19:41;;;;;;;11.23;6.53;;;;;;;;;;5070217;28;20025;-47
2023/12/08 08:22:07;;;;;;;12.32;8.15;;;;;;;;;;5069810;28;20115;-47
2023/12/08 08:24:33;;;;;;;11.65;6.72;;;;;;;;;;5070196;28;20044;-45
2023/12/08 08:27:00;;;;;;;11.70;6.85;;;;;;;;;;5086805;28;20021;-47
2023/12/08 08:29:26;;;;;;;11.80;6.90;;;;;;;;;;5076878;28;20155;-48
2023/12/08 08:31:52;;;;;;;11.60;6.80;;;;;;;;;;5069782;28;20095;-57
2023/12/08 08:34:18;;;;;;;11.18;6.70;;;;;;;;;;5070045;28;20390;-56
2023/12/08 08:36:44;;;;;;;11.07;6.50;;;;;;;;;;5070571;28;20034;-56
2023/12/08 08:39:11;;;;;;;11.90;7.93;;;;;;;;;;5071710;28;20028;-54
2023/12/08 08:41:37;;;;;;;11.07;6.47;;;;;;;;;;5075567;28;20086;-58
2023/12/08 08:44:03;;;;;;;11.27;6.60;;;;;;;;;;5069378;28;20451;-57
2023/12/08 08:46:29;;;;;;;11.50;6.70;;;;;;;;;;5069651;28;20032;-56
2023/12/08 08:48:56;;;;;;;11.50;6.70;;;;;;;;;;5069443;28;20021;-51
2023/12/08 08:51:22;;;;;;;11.70;6.80;;;;;;;;;;5072788;28;20382;-55
2023/12/08 08:53:49;;;;;;;13.95;10.13;;;;;;;;;;5082442;28;20016;-51
2023/12/08 08:56:16;;;;;;;12.00;7.00;;;;;;;;;;5069251;28;20086;-52
2023/12/08 08:58:42;;;;;;;12.25;7.03;;;;;;;;;;5069203;28;20024;-52
2023/12/08 09:01:08;;;;;;;12.40;8.27;;;;;;;;;;5069003;28;20082;-52
2023/12/08 09:03:34;;;;;;;13.07;7.80;;;;;;;;;;5069160;28;20016;-55
2023/12/08 09:06:00;;;;;;;15.38;8.88;;;;;;;;;;5073901;28;20048;-55
2023/12/08 09:08:26;;;;;;;11.68;6.80;;;;;;;;;;5071246;28;20052;-52
2023/12/08 09:10:52;;;;;;;11.25;6.60;;;;;;;;;;5089502;28;20028;-53
2023/12/08 09:13:20;;;;;;;21.27;18.88;;;;;;;;;;5070787;28;20031;-49
2023/12/08 09:15:46;;;;;;;19.00;8.90;;;;;;;;;;5089191;28;20084;-55
2023/12/08 09:18:12;;;;;;;11.63;6.80;;;;;;;;;;5087349;28;20028;-55
2023/12/08 09:20:39;;;;;;;11.52;6.68;;;;;;;;;;5068982;28;20103;-48
2023/12/08 09:23:05;;;;;;;11.35;6.68;;;;;;;;;;5069357;28;20025;-45
2023/12/08 09:25:31;;;;;;;13.75;8.85;;;;;;;;;;5069128;28;20159;-47
2023/12/08 09:27:58;;;;;;;11.85;6.95;;;;;;;;;;5069209;28;20028;-46
2023/12/08 09:30:24;;;;;;;12.18;8.13;;;;;;;;;;5069400;28;20612;-45
2023/12/08 09:32:53;;;;;;;11.48;6.78;;;;;;;;;;5077171;28;20020;-47
2023/12/08 09:35:19;;;;;;;11.70;7.43;;;;;;;;;;5082037;28;20036;-45
2023/12/08 09:37:45;;;;;;;12.05;6.90;;;;;;;;;;5089800;28;20024;-47
2023/12/08 09:40:11;;;;;;;11.38;6.65;;;;;;;;;;5089740;28;20030;-44
2023/12/08 09:42:43;;;;;;;11.80;7.25;;;;;;;;;;5089837;28;20020;-49
2023/12/08 09:45:10;;;;;;;11.40;6.70;;;;;;;;;;5071925;28;20436;-47
2023/12/08 09:47:36;;;;;;;11.57;6.70;;;;;;;;;;5071261;28;20024;-49
2023/12/08 09:50:05;;;;;;;12.20;7.10;;;;;;;;;;5089648;28;20028;-44
2023/12/08 09:52:33;;;;;;;12.25;7.10;;;;;;;;;;5089585;28;20016;-45
2023/12/08 09:55:00;;;;;;;12.50;7.30;;;;;;;;;;5089520;28;20073;-46
2023/12/08 09:57:27;;;;;;;11.95;6.97;;;;;;;;;;5089276;28;20435;-49
2023/12/08 09:59:55;;;;;;;12.25;7.15;;;;;;;;;;5089663;28;20103;-46
2023/12/08 10:02:21;;;;;;;12.05;7.10;;;;;;;;;;5089705;28;20025;-49
2023/12/08 10:04:47;;;;;;;12.40;7.30;;;;;;;;;;5089258;28;20027;-50
2023/12/08 10:07:14;;;;;;;11.73;6.85;;;;;;;;;;5089096;28;20095;-51
2023/12/08 10:09:43;;;;;;;12.15;7.05;;;;;;;;;;5089419;28;20128;-47
2023/12/08 10:12:09;;;;;;;12.13;7.05;;;;;;;;;;5088718;28;20039;-48
2023/12/08 10:14:48;;;;;;;12.80;7.50;;;;;;;;;;5089372;28;20020;-48
2023/12/08 10:17:14;;;;;;;12.55;7.30;;;;;;;;;;5093226;28;20043;-46
2023/12/08 10:19:40;;;;;;;12.73;7.40;;;;;;;;;;5093095;28;20024;-48
2023/12/08 10:22:06;;;;;;;13.00;7.90;;;;;;;;;;5092798;28;20031;-48
2023/12/08 10:24:32;;;;;;;12.55;7.30;;;;;;;;;;5092907;28;20027;-46
2023/12/08 10:26:59;;;;;;;12.52;7.25;;;;;;;;;;5080983;28;20117;-43
2023/12/08 10:29:29;;;;;;;12.93;7.93;;;;;;;;;;5072371;28;20031;-47
2023/12/08 10:31:56;;;;;;;13.30;7.78;;;;;;;;;;5074941;28;20025;-44
2023/12/08 10:34:22;;;;;;;13.10;7.70;;;;;;;;;;5092388;28;20027;-48
2023/12/08 10:36:48;;;;;;;12.50;7.28;;;;;;;;;;5069241;28;20024;-51
2023/12/08 10:39:16;;;;;;;12.40;7.30;;;;;;;;;;5082713;28;20035;-46
2023/12/08 10:41:42;;;;;;;12.70;8.20;;;;;;;;;;5074987;28;20028;-48
2023/12/08 10:44:08;;;;;;;13.38;9.65;;;;;;;;;;5070092;28;20063;-47
2023/12/08 10:46:35;;;;;;;12.30;7.18;;;;;;;;;;5072015;28;20016;-52
2023/12/08 10:49:01;;;;;;;12.88;7.47;;;;;;;;;;5071488;28;20023;-46
2023/12/08 10:51:29;;;;;;;12.10;7.00;;;;;;;;;;5071702;28;20483;-47
2023/12/08 10:53:57;;;;;;;12.10;7.10;;;;;;;;;;5071852;28;20013;-45
2023/12/08 10:56:23;;;;;;;12.90;7.50;;;;;;;;;;5072416;28;20076;-47
2023/12/08 10:58:51;;;;;;;12.77;7.40;;;;;;;;;;5072337;28;20021;-48
2023/12/08 11:01:18;;;;;;;12.60;7.30;;;;;;;;;;5071075;28;20028;-46
2023/12/08 11:03:47;;;;;;;12.88;7.57;;;;;;;;;;5070214;28;20027;-49
2023/12/08 11:06:20;;;;;;;12.80;7.90;;;;;;;;;;5077443;28;20028;-47
2023/12/08 11:08:46;;;;;;;12.90;7.50;;;;;;;;;;5091605;28;20055;-48
2023/12/08 11:11:13;;;;;;;12.27;7.20;;;;;;;;;;5082299;28;20032;-50
2023/12/08 11:13:44;;;;;;;12.65;7.35;;;;;;;;;;5077039;28;20044;-51
2023/12/08 11:16:16;;;;;;;12.57;7.40;;;;;;;;;;5071378;28;20052;-48
2023/12/08 11:18:42;;;;;;;11.57;6.80;;;;;;;;;;5071380;28;20025;-48
2023/12/08 11:21:09;;;;;;;11.75;6.90;;;;;;;;;;5070292;28;20078;-46
2023/12/08 11:23:39;;;;;;;11.65;6.90;;;;;;;;;;5071863;28;20016;-50
2023/12/08 11:26:14;;;;;;;12.13;7.10;;;;;;;;;;5071519;28;20024;-46
2023/12/08 11:28:47;;;;;;;12.20;7.18;;;;;;;;;;5079165;28;20028;-47
2023/12/08 11:31:18;;;;;;;11.27;6.53;;;;;;;;;;5083098;28;20047;-51
2023/12/08 11:33:52;;;;;;;12.13;7.72;;;;;;;;;;5091370;28;20126;-48
2023/12/08 11:36:18;;;;;;;11.75;6.90;;;;;;;;;;5090566;28;20094;-47
2023/12/08 11:38:44;;;;;;;12.23;7.20;;;;;;;;;;5072166;28;20115;-49
2023/12/08 11:41:14;;;;;;;12.10;7.10;;;;;;;;;;5090970;28;20051;-47
2023/12/08 11:43:42;;;;;;;11.90;7.00;;;;;;;;;;5091332;28;20047;-48
2023/12/08 11:46:08;;;;;;;11.60;6.82;;;;;;;;;;5091683;28;20020;-50
2023/12/08 11:48:35;;;;;;;12.07;7.00;;;;;;;;;;5071958;28;20096;-49
2023/12/08 11:51:01;;;;;;;11.55;6.80;;;;;;;;;;5088887;28;20024;-47
2023/12/08 11:53:27;;;;;;;12.35;7.30;;;;;;;;;;5089278;28;20028;-46
2023/12/08 11:55:54;;;;;;;12.40;7.32;;;;;;;;;;5088366;28;20023;-50
2023/12/08 11:58:24;;;;;;;12.55;8.75;;;;;;;;;;5090559;28;20344;-47
2023/12/08 12:00:50;;;;;;;12.35;7.20;;;;;;;;;;5089975;28;20043;-47
2023/12/08 12:03:16;;;;;;;11.40;6.70;;;;;;;;;;5090555;28;20020;-49
2023/12/08 12:05:43;;;;;;;11.48;6.72;;;;;;;;;;5096469;28;20028;-50
2023/12/08 12:08:09;;;;;;;11.25;6.60;;;;;;;;;;5096724;28;20103;-52
2023/12/08 12:10:37;;;;;;;11.10;6.47;;;;;;;;;;5095953;28;20031;-51
2023/12/08 12:13:03;;;;;;;10.93;6.50;;;;;;;;;;5106193;22;20083;-54
2023/12/08 12:15:30;;;;;;;11.88;8.35;;;;;;;;;;5089043;28;20459;-50
2023/12/08 12:17:56;;;;;;;11.00;6.50;;;;;;;;;;5089210;28;20031;-51
2023/12/08 12:20:23;;;;;;;11.40;6.90;;;;;;;;;;5089389;28;20016;-58
2023/12/08 12:22:49;;;;;;;11.48;6.90;;;;;;;;;;5089829;28;20032;-57
2023/12/08 12:25:15;;;;;;;11.35;6.70;;;;;;;;;;5089452;28;20073;-55
2023/12/08 12:27:41;;;;;;;11.40;6.70;;;;;;;;;;5089387;28;20035;-55
2023/12/08 12:30:08;;;;;;;11.10;6.60;;;;;;;;;;5070490;28;20500;-50
2023/12/08 12:32:34;;;;;;;11.32;6.75;;;;;;;;;;5089194;28;20020;-55
2023/12/08 12:35:01;;;;;;;12.60;6.93;;;;;;;;;;5089619;28;20061;-53
2023/12/08 12:37:27;;;;;;;11.75;6.72;;;;;;;;;;5089419;28;20497;-53
2023/12/08 12:39:53;;;;;;;10.90;6.40;;;;;;;;;;5089166;28;20024;-53
2023/12/08 12:42:19;;;;;;;11.38;6.60;;;;;;;;;;5089429;28;20016;-56
2023/12/08 12:44:46;;;;;;;15.13;7.45;;;;;;;;;;5070797;28;20077;-56
2023/12/08 12:47:13;;;;;;;10.48;6.18;;;;;;;;;;5089769;28;20391;-50
2023/12/08 12:49:39;;;;;;;10.90;6.40;;;;;;;;;;5089646;28;20043;-54
2023/12/08 12:52:21;;;;;;;12.60;6.82;;;;;;;;;;5071229;28;20050;-55
2023/12/08 12:54:47;;;;;;;12.27;7.85;;;;;;;;;;5089724;28;20094;-55
2023/12/08 12:57:15;;;;;;;10.55;6.20;;;;;;;;;;5089814;28;20034;-56
2023/12/08 12:59:56;;;;;;;11.45;6.80;;;;;;;;;;5089574;28;20066;-51
2023/12/08 13:02:29;;;;;;;16.80;8.90;;;;;;;;;;5070784;28;20635;-56
2023/12/08 13:04:55;;;;;;;10.57;6.25;;;;;;;;;;5089812;28;20107;-55
2023/12/08 13:07:21;;;;;;;10.48;6.18;;;;;;;;;;5071308;28;20057;-55
2023/12/08 13:09:48;;;;;;;11.55;6.95;;;;;;;;;;5089481;28;20032;-52
2023/12/08 13:12:14;;;;;;;12.02;6.90;;;;;;;;;;5084096;28;20031;-55
2023/12/08 13:14:40;;;;;;;11.15;6.95;;;;;;;;;;5061191;28;20382;-54
2023/12/08 13:17:07;;;;;;;14.68;7.78;;;;;;;;;;5078334;28;20370;-58
2023/12/08 13:19:33;;;;;;;13.00;8.60;;;;;;;;;;5079463;28;20118;-57
2023/12/08 13:21:59;;;;;;;10.25;6.05;;;;;;;;;;5061278;28;20824;-54
2023/12/08 13:24:25;;;;;;;10.05;5.90;;;;;;;;;;5078103;28;20109;-50
2023/12/08 13:26:51;;;;;;;10.40;6.10;;;;;;;;;;5079467;28;20040;-55
2023/12/08 13:29:17;;;;;;;10.10;5.95;;;;;;;;;;5077844;28;20583;-52
2023/12/08 13:31:44;;;;;;;10.93;6.50;;;;;;;;;;5078205;28;20024;-55
2023/12/08 13:34:10;;;;;;;13.52;8.13;;;;;;;;;;5073911;28;20048;-57
2023/12/08 13:36:39;;;;;;;14.63;9.73;;;;;;;;;;5068305;28;20059;-50
2023/12/08 13:39:05;;;;;;;13.23;7.88;;;;;;;;;;5068222;28;20072;-55
2023/12/08 13:41:32;;;;;;;14.18;8.35;;;;;;;;;;5072010;28;20029;-56
2023/12/08 13:43:59;;;;;;;11.10;6.85;;;;;;;;;;5077365;28;20016;-50
2023/12/08 13:46:25;;;;;;;18.35;9.75;;;;;;;;;;5082002;28;20612;-57
2023/12/08 13:48:51;;;;;;;12.55;8.15;;;;;;;;;;5079218;28;20024;-56
2023/12/08 13:51:17;;;;;;;12.25;7.82;;;;;;;;;;5084419;28;20073;-55
2023/12/08 13:53:42;;;;;;;11.43;6.95;;;;;;;;;;5083345;28;20429;-53
2023/12/08 13:56:09;;;;;;;10.90;6.40;;;;;;;;;;5086244;28;20044;-53
2023/12/08 13:58:35;;;;;;;12.27;7.13;;;;;;;;;;5066782;28;20012;-52
2023/12/08 14:01:01;;;;;;;12.23;6.70;;;;;;;;;;5084674;28;20058;-54
2023/12/08 14:03:27;;;;;;;11.25;6.65;;;;;;;;;;5085217;28;20046;-52
2023/12/08 14:05:53;;;;;;;11.85;6.93;;;;;;;;;;5086739;28;20497;-52
2023/12/08 14:08:19;;;;;;;11.10;6.50;;;;;;;;;;5085851;28;20032;-56
2023/12/08 14:10:45;;;;;;;12.40;7.63;;;;;;;;;;5083169;28;20021;-55
2023/12/08 14:13:11;;;;;;;13.02;8.68;;;;;;;;;;5085629;28;20142;-56
2023/12/08 14:15:37;;;;;;;12.20;7.38;;;;;;;;;;5081951;28;20072;-56
2023/12/08 14:18:03;;;;;;;13.45;7.53;;;;;;;;;;5085069;28;20043;-54
2023/12/08 14:20:29;;;;;;;12.32;7.38;;;;;;;;;;5084668;28;20016;-58
2023/12/08 14:22:55;;;;;;;13.50;8.40;;;;;;;;;;5083525;28;20032;-54
2023/12/08 14:25:21;;;;;;;18.35;10.35;;;;;;;;;;5085733;28;20094;-52